La Coste, Texas
Current Conditions -  °F | °C
As of 2:35 PM on Friday 28 Nov 2014 (Local Time) from KCVB Reporting Station
Clear Clear  
Wind Chill: 72°   Ceiling: Unl
Heat Index: 72°   Visibility: 10mi
Dew Point: 46°   Wind: 16mph
Humidity: 40%   Direction: 200°SSW
Pressure: 30.17"   Gusts: NA
Location:  29.31°N, 98.81°W
Report Text: KCVB 282035Z AUTO 20014KT 10SM CLR 22/08 A3017 RMK AO2 T02200078
Loading
Personal Weather Stations






























Interactive Weather Map New forecast layout! Learn more

10-Day Weather Forecast

Advertisements
Track Severe Weather on mobile